createdAt,value
2023-02-15T00:02:05.226Z,42.27
2023-02-15T00:04:49.779Z,40.40
2023-02-15T00:07:22.921Z,44.77
2023-02-15T00:09:53.628Z,35.37
2023-02-15T00:12:23.711Z,44.73
2023-02-15T00:14:53.807Z,38.10
2023-02-15T00:17:26.415Z,46.60
2023-02-15T00:19:56.395Z,51.97
2023-02-15T00:22:26.484Z,32.53
2023-02-15T00:24:56.543Z,44.00
2023-02-15T00:27:27.158Z,45.77
2023-02-15T00:29:57.119Z,43.13
2023-02-15T00:32:29.696Z,44.33
2023-02-15T00:34:59.659Z,30.73
2023-02-15T00:37:29.662Z,37.70
2023-02-15T00:39:59.654Z,47.07
2023-02-15T00:42:29.604Z,40.53
2023-02-15T00:44:59.605Z,47.93
2023-02-15T00:47:34.753Z,42.30
2023-02-15T00:50:04.852Z,36.57
2023-02-15T00:52:34.892Z,42.37
2023-02-15T00:55:07.217Z,36.33
2023-02-15T00:57:37.194Z,48.67
2023-02-15T01:00:08.935Z,47.10
2023-02-15T01:02:41.492Z,43.20
2023-02-15T01:05:11.993Z,38.00
2023-02-15T01:07:42.745Z,28.67
2023-02-15T01:10:13.461Z,31.00
2023-02-15T01:12:43.434Z,39.40
2023-02-15T01:15:14.087Z,40.13
2023-02-15T01:17:52.223Z,44.23
2023-02-15T01:20:23.644Z,33.37
2023-02-15T01:22:54.121Z,45.90
2023-02-15T01:25:27.665Z,43.97
2023-02-15T01:27:58.789Z,39.33
2023-02-15T01:30:28.964Z,48.67
2023-02-15T01:33:01.801Z,33.60
2023-02-15T01:35:34.650Z,42.70
2023-02-15T01:38:04.621Z,39.03
2023-02-15T01:40:34.718Z,43.23
2023-02-15T01:43:04.700Z,40.43
2023-02-15T01:45:36.846Z,39.33
2023-02-15T01:48:23.408Z,52.17
2023-02-15T01:50:58.298Z,42.07
2023-02-15T01:53:33.878Z,40.53
2023-02-15T01:56:10.539Z,43.20
2023-02-15T01:58:42.499Z,45.17
2023-02-15T02:01:13.156Z,46.60
2023-02-15T02:03:57.156Z,48.30
2023-02-15T02:06:29.492Z,49.07
2023-02-15T02:09:00.502Z,50.80
2023-02-15T02:11:31.080Z,41.53
2023-02-15T02:14:01.312Z,59.47
2023-02-15T02:16:45.938Z,62.30
2023-02-15T02:20:11.208Z,48.27
2023-02-15T02:23:11.623Z,42.50
2023-02-15T02:26:37.202Z,49.10
2023-02-15T02:30:01.808Z,52.43
2023-02-15T02:33:35.840Z,47.53
2023-02-15T02:36:20.184Z,53.93
2023-02-15T02:39:10.151Z,45.57
2023-02-15T02:41:54.264Z,47.17
2023-02-15T02:44:29.835Z,41.67
2023-02-15T02:47:10.223Z,46.30
2023-02-15T02:49:46.657Z,48.53
2023-02-15T02:52:41.139Z,45.67
2023-02-15T02:55:19.386Z,48.23
2023-02-15T02:57:59.422Z,42.63
2023-02-15T03:00:35.439Z,45.10
2023-02-15T03:03:12.939Z,53.77
2023-02-15T03:05:50.611Z,48.37
2023-02-15T03:08:29.044Z,62.23
2023-02-15T03:11:03.688Z,48.73
2023-02-15T03:13:35.451Z,62.90
2023-02-15T03:16:22.780Z,62.10
2023-02-15T03:19:00.749Z,42.67
2023-02-15T03:21:58.600Z,45.40
2023-02-15T03:24:35.676Z,48.20
2023-02-15T03:27:11.376Z,54.67
2023-02-15T03:29:43.402Z,59.43
2023-02-15T03:32:16.468Z,50.33
2023-02-15T03:34:47.490Z,47.87
2023-02-15T03:37:31.827Z,48.33
2023-02-15T03:40:27.648Z,49.27
2023-02-15T03:43:08.181Z,62.03
2023-02-15T03:45:55.858Z,52.77
2023-02-15T03:48:33.557Z,52.40
2023-02-15T03:51:25.053Z,59.17
2023-02-15T03:53:59.968Z,56.07
2023-02-15T03:56:30.306Z,58.93
2023-02-15T03:59:12.808Z,45.50
2023-02-15T04:02:01.452Z,49.27
2023-02-15T04:04:40.036Z,61.60
2023-02-15T04:07:12.997Z,47.00
2023-02-15T04:09:58.077Z,49.43
2023-02-15T04:12:28.379Z,48.60
2023-02-15T04:15:10.864Z,61.87
2023-02-15T04:17:41.724Z,52.40
2023-02-15T04:20:26.083Z,60.77
2023-02-15T04:23:08.739Z,66.13
2023-02-15T04:25:41.274Z,43.83
2023-02-15T04:28:11.976Z,54.80
2023-02-15T04:30:41.985Z,45.23
2023-02-15T04:33:11.948Z,54.90
2023-02-15T04:35:41.928Z,56.83
2023-02-15T04:38:11.939Z,40.47
2023-02-15T04:40:44.570Z,51.27
2023-02-15T04:43:14.559Z,56.07
2023-02-15T04:45:44.573Z,74.93
2023-02-15T04:48:14.616Z,46.17
2023-02-15T04:50:44.605Z,47.30
2023-02-15T04:53:17.860Z,52.37
2023-02-15T04:55:50.587Z,40.13
2023-02-15T04:58:20.742Z,42.47
2023-02-15T05:00:50.757Z,45.03
2023-02-15T05:03:20.842Z,57.33
2023-02-15T05:05:50.919Z,55.40
2023-02-15T05:08:21.284Z,43.67
2023-02-15T05:10:54.771Z,66.80
2023-02-15T05:13:24.777Z,53.00
2023-02-15T05:15:56.698Z,45.13
2023-02-15T05:18:27.307Z,53.67
2023-02-15T05:20:57.304Z,55.73
2023-02-15T05:23:27.328Z,51.23
2023-02-15T05:26:12.507Z,40.27
2023-02-15T05:28:43.331Z,52.03
2023-02-15T05:31:18.032Z,58.70
2023-02-15T05:33:48.644Z,50.73
2023-02-15T05:36:18.688Z,46.20
2023-02-15T05:38:49.146Z,46.40
2023-02-15T05:41:22.414Z,39.77
2023-02-15T05:43:52.642Z,45.07
2023-02-15T05:46:22.786Z,44.47
2023-02-15T05:48:52.806Z,47.40
2023-02-15T05:51:22.820Z,43.87
2023-02-15T05:53:52.803Z,52.87
2023-02-15T05:56:26.170Z,55.27
2023-02-15T05:58:57.686Z,51.47
2023-02-15T06:01:27.815Z,65.80
2023-02-15T06:03:57.964Z,61.47
2023-02-15T06:06:28.087Z,45.73
2023-02-15T06:08:58.020Z,51.70
2023-02-15T06:11:30.634Z,38.70
2023-02-15T06:14:00.589Z,52.37
2023-02-15T06:16:30.611Z,43.73
2023-02-15T06:19:02.472Z,48.30
2023-02-15T06:21:34.101Z,57.17
2023-02-15T06:24:04.047Z,66.13
2023-02-15T06:26:36.648Z,43.73
2023-02-15T06:29:07.162Z,53.67
2023-02-15T06:31:37.419Z,51.13
2023-02-15T06:34:07.474Z,50.07
2023-02-15T06:36:37.862Z,51.00
2023-02-15T06:39:08.301Z,63.60
2023-02-15T06:41:40.877Z,67.10
2023-02-15T06:44:11.108Z,47.17
2023-02-15T06:46:41.126Z,58.33
2023-02-15T06:49:11.256Z,54.43
2023-02-15T06:51:41.225Z,68.57
2023-02-15T06:54:11.334Z,52.00
2023-02-15T06:56:44.596Z,59.20
2023-02-15T06:59:14.857Z,53.50
2023-02-15T07:01:44.910Z,47.70
2023-02-15T07:04:14.909Z,58.80
2023-02-15T07:06:45.232Z,69.07
2023-02-15T07:09:15.246Z,47.97
2023-02-15T07:12:00.292Z,54.23
2023-02-15T07:14:30.325Z,61.10
2023-02-15T07:17:00.708Z,61.93
2023-02-15T07:19:31.037Z,48.57
2023-02-15T07:22:01.041Z,51.50
2023-02-15T07:24:31.073Z,65.80
2023-02-15T07:27:03.682Z,68.70
2023-02-15T07:29:33.685Z,57.33
2023-02-15T07:32:03.814Z,59.10
2023-02-15T07:34:33.755Z,56.60
2023-02-15T07:37:03.728Z,61.63
2023-02-15T07:39:33.818Z,59.73
2023-02-15T07:42:06.874Z,68.40
2023-02-15T07:44:36.783Z,54.60
2023-02-15T07:47:06.942Z,58.63
2023-02-15T07:49:37.178Z,57.07
2023-02-15T07:52:08.044Z,61.03
2023-02-15T07:54:38.027Z,70.47
2023-02-15T07:57:10.704Z,64.27
2023-02-15T07:59:40.714Z,65.13
2023-02-15T08:02:14.041Z,60.33
2023-02-15T08:04:44.442Z,51.20
2023-02-15T08:07:14.398Z,50.40
2023-02-15T08:09:44.436Z,53.77
2023-02-15T08:12:17.028Z,54.60
2023-02-15T08:14:47.000Z,53.63
2023-02-15T08:17:17.067Z,49.70
2023-02-15T08:19:47.787Z,47.67
2023-02-15T08:22:18.538Z,49.53
2023-02-15T08:24:48.530Z,44.00
2023-02-15T08:27:27.667Z,53.87
2023-02-15T08:29:57.738Z,53.87
2023-02-15T08:32:27.767Z,49.03
2023-02-15T08:34:58.004Z,61.40
2023-02-15T08:37:27.979Z,47.70
2023-02-15T08:39:58.197Z,43.00
2023-02-15T08:42:31.477Z,52.87
2023-02-15T08:45:01.429Z,61.60
2023-02-15T08:47:31.708Z,49.77
2023-02-15T08:50:01.963Z,50.30
2023-02-15T08:52:31.981Z,50.07
2023-02-15T08:55:01.987Z,52.00
2023-02-15T08:57:34.643Z,66.40
2023-02-15T09:00:05.760Z,58.57
2023-02-15T09:02:36.271Z,50.10
2023-02-15T09:05:06.690Z,54.60
2023-02-15T09:07:36.650Z,57.93
2023-02-15T09:10:07.180Z,50.20
2023-02-15T09:12:39.818Z,59.30
2023-02-15T09:15:11.948Z,57.87
2023-02-15T09:17:41.893Z,48.50
2023-02-15T09:20:13.078Z,45.23
2023-02-15T09:22:43.152Z,52.43
2023-02-15T09:25:14.597Z,49.00
2023-02-15T09:27:47.216Z,47.13
2023-02-15T09:30:18.228Z,57.10
2023-02-15T09:32:48.402Z,55.20
2023-02-15T09:35:18.509Z,48.27
2023-02-15T09:37:48.506Z,42.90
2023-02-15T09:40:21.669Z,41.90
2023-02-15T09:43:35.134Z,45.33
2023-02-15T09:46:33.758Z,43.33
2023-02-15T09:49:15.133Z,42.33
2023-02-15T09:52:30.034Z,38.73
2023-02-15T09:55:23.339Z,40.90
2023-02-15T09:58:06.819Z,35.07
2023-02-15T10:00:53.847Z,39.27
2023-02-15T10:03:43.640Z,39.50
2023-02-15T10:06:35.456Z,34.40
2023-02-15T10:09:31.064Z,41.90
2023-02-15T10:12:24.357Z,35.03
2023-02-15T10:15:14.884Z,36.90
2023-02-15T10:18:04.173Z,36.63
2023-02-15T10:20:50.362Z,39.80
2023-02-15T10:23:50.806Z,32.03
2023-02-15T10:26:24.065Z,30.60
2023-02-15T10:28:57.597Z,32.30
2023-02-15T10:31:31.166Z,34.70
2023-02-15T10:34:20.101Z,34.90
2023-02-15T10:37:38.035Z,26.90
2023-02-15T10:40:23.948Z,29.57
2023-02-15T10:43:18.227Z,29.43
2023-02-15T10:46:06.824Z,27.10
2023-02-15T10:49:18.850Z,24.00
2023-02-15T10:52:12.199Z,23.73
2023-02-15T10:54:55.111Z,22.43
2023-02-15T10:57:37.852Z,21.33
2023-02-15T11:00:16.413Z,26.77
2023-02-15T11:03:21.538Z,29.33
2023-02-15T11:06:06.679Z,27.37
2023-02-15T11:08:43.151Z,27.10
2023-02-15T11:11:19.642Z,28.80
2023-02-15T11:13:57.123Z,27.40
2023-02-15T11:16:32.791Z,24.37
2023-02-15T11:19:10.418Z,28.87
2023-02-15T11:21:50.990Z,31.70
2023-02-15T11:24:24.080Z,30.47
2023-02-15T11:27:03.483Z,28.77
2023-02-15T11:29:40.560Z,31.33
2023-02-15T11:32:25.054Z,26.67
2023-02-15T11:35:02.151Z,23.97
2023-02-15T11:37:41.715Z,30.80
2023-02-15T11:40:25.740Z,25.57
2023-02-15T11:43:01.066Z,24.13
2023-02-15T11:45:33.952Z,25.77
2023-02-15T11:48:05.900Z,28.60
2023-02-15T11:50:36.761Z,28.33
2023-02-15T11:53:17.989Z,31.53
2023-02-15T11:55:51.859Z,26.00
2023-02-15T11:58:35.205Z,24.90
2023-02-15T12:01:15.121Z,21.43
2023-02-15T12:03:51.528Z,25.27
2023-02-15T12:06:29.310Z,24.63
2023-02-15T12:09:16.680Z,21.37
2023-02-15T12:11:46.743Z,24.37
2023-02-15T12:14:18.977Z,20.80
2023-02-15T12:16:52.901Z,23.30
2023-02-15T12:19:33.895Z,21.20
2023-02-15T12:22:09.672Z,24.23
2023-02-15T12:24:52.261Z,57.63
2023-02-15T12:27:27.571Z,43.93
2023-02-15T12:30:05.069Z,29.37
2023-02-15T12:32:38.604Z,35.63
2023-02-15T12:35:19.993Z,33.80
2023-02-15T12:37:58.978Z,38.30
2023-02-15T12:40:32.631Z,38.53
2023-02-15T12:43:09.500Z,45.93
2023-02-15T12:45:41.575Z,36.10
2023-02-15T12:48:21.048Z,32.67
2023-02-15T12:50:55.899Z,33.30
2023-02-15T12:53:35.514Z,37.57
2023-02-15T12:56:11.349Z,34.73
2023-02-15T12:58:43.549Z,34.20
2023-02-15T13:01:18.793Z,33.10
2023-02-15T13:04:06.872Z,33.33
2023-02-15T13:06:40.398Z,31.80
2023-02-15T13:09:20.718Z,36.03
2023-02-15T13:11:53.548Z,30.47
2023-02-15T13:14:30.060Z,36.00
2023-02-15T13:17:08.711Z,32.80
2023-02-15T13:19:45.827Z,30.60
2023-02-15T13:22:21.435Z,38.33
2023-02-15T13:24:56.307Z,30.43
2023-02-15T13:27:37.994Z,27.90
2023-02-15T13:30:26.104Z,34.33
2023-02-15T13:33:04.092Z,31.67
2023-02-15T13:35:46.788Z,33.07
2023-02-15T13:38:47.915Z,28.83
2023-02-15T13:41:27.641Z,32.33
2023-02-15T13:44:15.889Z,38.17
2023-02-15T13:47:10.057Z,28.87
2023-02-15T13:49:56.389Z,34.73
2023-02-15T13:52:30.854Z,33.90
2023-02-15T13:55:27.378Z,32.47
2023-02-15T13:58:31.949Z,39.33
2023-02-15T14:01:14.426Z,43.97
2023-02-15T14:04:16.423Z,38.37
2023-02-15T14:07:22.175Z,32.10
2023-02-15T14:10:06.392Z,34.57
2023-02-15T14:13:05.408Z,37.73
2023-02-15T14:15:48.149Z,29.67
2023-02-15T14:18:31.110Z,29.60
2023-02-15T14:21:13.312Z,33.70
2023-02-15T14:24:05.670Z,35.60
2023-02-15T14:26:45.623Z,35.33
2023-02-15T14:29:31.358Z,33.80
2023-02-15T14:32:12.202Z,32.07
2023-02-15T14:34:52.417Z,30.77
2023-02-15T14:37:40.883Z,31.70
2023-02-15T14:40:34.850Z,35.00
2023-02-15T14:43:15.191Z,37.47
2023-02-15T14:45:53.547Z,35.90
2023-02-15T14:48:33.365Z,39.57
2023-02-15T14:51:06.403Z,38.20
2023-02-15T14:53:43.212Z,34.60
2023-02-15T14:56:27.563Z,54.20
2023-02-15T14:59:18.548Z,35.07
2023-02-15T15:02:01.437Z,30.67
2023-02-15T15:04:44.992Z,40.10
2023-02-15T15:07:29.860Z,34.60
2023-02-15T15:10:17.083Z,43.37
2023-02-15T15:12:49.250Z,36.50
2023-02-15T15:15:47.864Z,41.53
2023-02-15T15:18:50.619Z,35.43
2023-02-15T15:21:58.298Z,35.87
2023-02-15T15:24:57.485Z,44.23
2023-02-15T15:27:47.650Z,35.97
2023-02-15T15:30:51.682Z,39.70
2023-02-15T15:34:11.466Z,40.37
2023-02-15T15:37:36.228Z,41.20
2023-02-15T15:40:53.094Z,41.40
2023-02-15T15:44:12.496Z,39.30
2023-02-15T15:47:26.738Z,39.63
2023-02-15T15:50:01.183Z,39.90
2023-02-15T15:52:39.602Z,38.57
2023-02-15T15:55:23.556Z,32.50
2023-02-15T15:57:57.242Z,44.97
2023-02-15T16:00:40.629Z,41.83
2023-02-15T16:03:19.308Z,40.87
2023-02-15T16:05:54.069Z,35.60
2023-02-15T16:08:32.539Z,45.10
2023-02-15T16:11:17.133Z,46.20
2023-02-15T16:13:48.989Z,55.33
2023-02-15T16:16:26.174Z,41.83
2023-02-15T16:18:56.819Z,42.00
2023-02-15T16:21:35.156Z,39.43
2023-02-15T16:24:41.107Z,30.87
2023-02-15T16:27:38.545Z,41.73
2023-02-15T16:30:28.680Z,39.10
2023-02-15T16:33:08.326Z,39.00
2023-02-15T16:35:41.028Z,36.73
2023-02-15T16:38:14.478Z,48.30
2023-02-15T16:40:58.789Z,39.40
2023-02-15T16:43:35.981Z,40.10
2023-02-15T16:46:10.767Z,40.73
2023-02-15T16:48:47.306Z,39.00
2023-02-15T16:51:28.569Z,36.50
2023-02-15T16:54:04.878Z,38.70
2023-02-15T16:56:37.426Z,30.97
2023-02-15T16:59:10.207Z,34.00
2023-02-15T17:01:40.238Z,36.53
2023-02-15T17:04:29.839Z,31.40
2023-02-15T17:07:07.170Z,39.23
2023-02-15T17:09:37.646Z,44.60
2023-02-15T17:12:10.539Z,38.77
2023-02-15T17:14:44.455Z,37.10
2023-02-15T17:17:19.170Z,39.93
2023-02-15T17:19:54.307Z,37.83
2023-02-15T17:22:30.473Z,43.20
2023-02-15T17:25:05.514Z,34.70
2023-02-15T17:27:38.085Z,43.50
2023-02-15T17:30:25.012Z,40.37
2023-02-15T17:33:01.535Z,41.30
2023-02-15T17:35:33.544Z,39.07
2023-02-15T17:38:20.402Z,40.60
2023-02-15T17:40:51.154Z,46.10
2023-02-15T17:43:21.154Z,42.57
2023-02-15T17:45:56.408Z,41.80
2023-02-15T17:48:34.353Z,44.40
2023-02-15T17:51:06.780Z,38.73
2023-02-15T17:53:37.423Z,37.87
2023-02-15T17:56:10.665Z,43.07
2023-02-15T17:58:42.319Z,35.90
2023-02-15T18:01:35.959Z,39.27
2023-02-15T18:04:18.759Z,36.23
2023-02-15T18:07:01.409Z,46.33
2023-02-15T18:09:44.076Z,48.00
2023-02-15T18:12:24.509Z,43.80
2023-02-15T18:14:55.833Z,39.97
2023-02-15T18:17:35.357Z,39.70
2023-02-15T18:20:11.339Z,49.83
2023-02-15T18:22:41.371Z,48.83
2023-02-15T18:25:16.851Z,40.07
2023-02-15T18:27:47.420Z,47.40
2023-02-15T18:30:21.276Z,47.77
2023-02-15T18:32:57.925Z,39.97
2023-02-15T18:35:33.604Z,52.00
2023-02-15T18:38:04.891Z,39.17
2023-02-15T18:40:35.124Z,41.77
2023-02-15T18:43:05.155Z,44.93
2023-02-15T18:45:37.333Z,39.03
2023-02-15T18:48:10.336Z,38.47
2023-02-15T18:50:41.558Z,49.93
2023-02-15T18:53:22.393Z,51.33
2023-02-15T18:55:52.502Z,48.30
2023-02-15T18:58:25.252Z,47.23
2023-02-15T19:00:55.669Z,46.93
2023-02-15T19:03:28.283Z,62.50
2023-02-15T19:05:58.333Z,49.33
2023-02-15T19:08:28.503Z,55.20
2023-02-15T19:10:58.904Z,51.70
2023-02-15T19:13:29.035Z,60.40
2023-02-15T19:16:00.079Z,49.47
2023-02-15T19:18:33.189Z,50.20
2023-02-15T19:21:03.277Z,61.30
2023-02-15T19:23:33.782Z,60.67
2023-02-15T19:26:06.063Z,52.10
2023-02-15T19:28:37.484Z,53.73
2023-02-15T19:31:08.605Z,55.27
2023-02-15T19:33:41.596Z,53.50
2023-02-15T19:36:21.676Z,50.83
2023-02-15T19:38:56.809Z,50.27
2023-02-15T19:41:33.571Z,51.00
2023-02-15T19:44:03.866Z,64.33
2023-02-15T19:46:34.214Z,56.97
2023-02-15T19:49:06.926Z,73.70
2023-02-15T19:51:36.925Z,59.30
2023-02-15T19:54:11.389Z,59.67
2023-02-15T19:56:41.483Z,59.50
2023-02-15T19:59:28.874Z,51.90
2023-02-15T20:01:59.717Z,67.03
2023-02-15T20:04:32.473Z,57.43
2023-02-15T20:07:05.153Z,66.13
2023-02-15T20:09:40.857Z,61.93
2023-02-15T20:12:23.464Z,48.17
2023-02-15T20:14:53.795Z,47.90
2023-02-15T20:17:23.891Z,58.63
2023-02-15T20:19:56.632Z,57.10
2023-02-15T20:22:30.013Z,65.43
2023-02-15T20:25:01.354Z,65.47
2023-02-15T20:27:31.379Z,64.00
2023-02-15T20:30:01.419Z,54.50
2023-02-15T20:32:31.759Z,52.13
2023-02-15T20:35:04.484Z,43.50
2023-02-15T20:37:34.616Z,48.77
2023-02-15T20:40:04.805Z,42.40
2023-02-15T20:42:37.675Z,50.43
2023-02-15T20:45:19.952Z,37.33
2023-02-15T20:47:51.225Z,43.40
2023-02-15T20:50:27.696Z,48.93
2023-02-15T20:53:02.667Z,44.90
2023-02-15T20:55:34.826Z,43.60
2023-02-15T20:58:04.879Z,45.13
2023-02-15T21:00:35.275Z,40.83
2023-02-15T21:03:05.376Z,44.27
2023-02-15T21:05:38.026Z,41.97
2023-02-15T21:08:15.646Z,40.87
2023-02-15T21:10:48.022Z,36.77
2023-02-15T21:13:25.559Z,41.10
2023-02-15T21:15:58.078Z,46.80
2023-02-15T21:18:31.176Z,54.97
2023-02-15T21:21:07.382Z,48.07
2023-02-15T21:23:41.376Z,41.70
2023-02-15T21:26:19.890Z,50.40
2023-02-15T21:28:51.083Z,51.53
2023-02-15T21:31:24.945Z,44.87
2023-02-15T21:33:55.499Z,45.60
2023-02-15T21:36:28.327Z,46.50
2023-02-15T21:38:58.497Z,40.43
2023-02-15T21:41:41.878Z,47.80
2023-02-15T21:44:32.243Z,42.87
2023-02-15T21:47:14.712Z,36.67
2023-02-15T21:49:44.784Z,45.40
2023-02-15T21:52:23.192Z,44.40
2023-02-15T21:54:53.387Z,45.80
2023-02-15T21:57:23.399Z,57.97
2023-02-15T21:59:53.464Z,56.23
2023-02-15T22:02:32.953Z,62.77
2023-02-15T22:05:02.982Z,57.57
2023-02-15T22:07:35.601Z,49.80
2023-02-15T22:10:05.757Z,53.87
2023-02-15T22:12:36.074Z,45.20
2023-02-15T22:15:07.497Z,47.20
2023-02-15T22:17:37.943Z,46.80
2023-02-15T22:20:19.344Z,43.23
2023-02-15T22:22:54.248Z,39.40
2023-02-15T22:25:27.826Z,38.70
2023-02-15T22:27:58.429Z,41.23
2023-02-15T22:30:32.720Z,38.00
2023-02-15T22:33:03.892Z,42.20
2023-02-15T22:35:36.908Z,42.50
2023-02-15T22:38:09.486Z,43.67
2023-02-15T22:40:39.511Z,39.03
2023-02-15T22:43:21.186Z,41.87
2023-02-15T22:45:51.561Z,36.63
2023-02-15T22:48:25.234Z,42.87
2023-02-15T22:50:55.511Z,37.13
2023-02-15T22:53:28.840Z,42.90
2023-02-15T22:55:59.443Z,39.30
2023-02-15T22:58:31.707Z,43.73
2023-02-15T23:01:03.842Z,40.73
2023-02-15T23:03:34.669Z,40.90
2023-02-15T23:06:04.704Z,46.67
2023-02-15T23:08:37.279Z,44.43
2023-02-15T23:11:08.855Z,37.03
2023-02-15T23:13:39.013Z,38.93
2023-02-15T23:16:16.942Z,43.83
2023-02-15T23:18:50.183Z,40.67
2023-02-15T23:21:24.975Z,43.63
2023-02-15T23:24:01.641Z,42.47
2023-02-15T23:26:34.131Z,37.97
2023-02-15T23:29:05.484Z,67.03
2023-02-15T23:31:41.688Z,60.30
2023-02-15T23:34:19.981Z,45.00
2023-02-15T23:36:50.115Z,50.93
2023-02-15T23:39:38.725Z,45.03
2023-02-15T23:42:14.206Z,54.30
2023-02-15T23:44:46.504Z,55.53
2023-02-15T23:47:44.239Z,38.87
2023-02-15T23:50:21.804Z,42.43
2023-02-15T23:52:53.685Z,52.53
2023-02-15T23:55:31.124Z,43.43
2023-02-15T23:58:01.205Z,49.87
